sensor_id;sensor_type;location;lat;lon;timestamp;P1;durP1;ratioP1;P2;durP2;ratioP2
45650;SDS011;31365;48.858;8.530;2023-09-12T00:01:07;7.72;;;4.82;;
45650;SDS011;31365;48.858;8.530;2023-09-12T00:03:35;5.80;;;4.93;;
45650;SDS011;31365;48.858;8.530;2023-09-12T00:06:04;10.60;;;4.82;;
45650;SDS011;31365;48.858;8.530;2023-09-12T00:08:32;10.63;;;5.18;;
45650;SDS011;31365;48.858;8.530;2023-09-12T00:11:01;7.22;;;4.90;;
45650;SDS011;31365;48.858;8.530;2023-09-12T00:13:33;9.15;;;5.15;;
45650;SDS011;31365;48.858;8.530;2023-09-12T00:16:02;6.78;;;4.72;;
45650;SDS011;31365;48.858;8.530;2023-09-12T00:18:32;5.72;;;5.13;;
45650;SDS011;31365;48.858;8.530;2023-09-12T00:21:01;8.57;;;4.90;;
45650;SDS011;31365;48.858;8.530;2023-09-12T00:23:30;6.68;;;5.00;;
45650;SDS011;31365;48.858;8.530;2023-09-12T00:25:58;6.97;;;4.90;;
45650;SDS011;31365;48.858;8.530;2023-09-12T00:28:26;5.88;;;4.93;;
45650;SDS011;31365;48.858;8.530;2023-09-12T00:30:57;5.75;;;4.68;;
45650;SDS011;31365;48.858;8.530;2023-09-12T00:33:25;6.00;;;4.30;;
45650;SDS011;31365;48.858;8.530;2023-09-12T00:35:53;8.27;;;4.70;;
45650;SDS011;31365;48.858;8.530;2023-09-12T00:38:21;13.25;;;5.95;;
45650;SDS011;31365;48.858;8.530;2023-09-12T00:40:49;6.95;;;5.18;;
45650;SDS011;31365;48.858;8.530;2023-09-12T00:43:18;6.72;;;4.75;;
45650;SDS011;31365;48.858;8.530;2023-09-12T00:45:46;8.70;;;5.07;;
45650;SDS011;31365;48.858;8.530;2023-09-12T00:48:16;8.85;;;5.05;;
45650;SDS011;31365;48.858;8.530;2023-09-12T00:50:47;7.03;;;4.63;;
45650;SDS011;31365;48.858;8.530;2023-09-12T00:53:17;6.85;;;5.10;;
45650;SDS011;31365;48.858;8.530;2023-09-12T00:55:48;7.75;;;5.22;;
45650;SDS011;31365;48.858;8.530;2023-09-12T00:58:24;7.93;;;5.30;;
45650;SDS011;31365;48.858;8.530;2023-09-12T01:00:54;7.00;;;4.72;;
45650;SDS011;31365;48.858;8.530;2023-09-12T01:03:25;8.65;;;5.05;;
45650;SDS011;31365;48.858;8.530;2023-09-12T01:05:55;6.28;;;4.43;;
45650;SDS011;31365;48.858;8.530;2023-09-12T01:08:28;6.85;;;5.88;;
45650;SDS011;31365;48.858;8.530;2023-09-12T01:10:56;7.93;;;5.32;;
45650;SDS011;31365;48.858;8.530;2023-09-12T01:13:25;5.95;;;5.28;;
45650;SDS011;31365;48.858;8.530;2023-09-12T01:15:55;10.60;;;5.80;;
45650;SDS011;31365;48.858;8.530;2023-09-12T01:18:23;8.82;;;5.80;;
45650;SDS011;31365;48.858;8.530;2023-09-12T01:20:59;5.95;;;5.30;;
45650;SDS011;31365;48.858;8.530;2023-09-12T01:24:00;9.98;;;4.93;;
45650;SDS011;31365;48.858;8.530;2023-09-12T01:27:07;7.00;;;5.28;;
45650;SDS011;31365;48.858;8.530;2023-09-12T01:29:56;9.82;;;5.57;;
45650;SDS011;31365;48.858;8.530;2023-09-12T01:32:29;8.70;;;5.28;;
45650;SDS011;31365;48.858;8.530;2023-09-12T01:34:59;7.97;;;4.70;;
45650;SDS011;31365;48.858;8.530;2023-09-12T01:37:30;5.22;;;4.72;;
45650;SDS011;31365;48.858;8.530;2023-09-12T01:39:59;6.25;;;4.97;;
45650;SDS011;31365;48.858;8.530;2023-09-12T01:42:31;11.25;;;5.20;;
45650;SDS011;31365;48.858;8.530;2023-09-12T01:45:06;7.03;;;4.65;;
45650;SDS011;31365;48.858;8.530;2023-09-12T01:47:38;7.15;;;4.88;;
45650;SDS011;31365;48.858;8.530;2023-09-12T01:50:09;9.88;;;4.60;;
45650;SDS011;31365;48.858;8.530;2023-09-12T01:52:42;14.02;;;5.28;;
45650;SDS011;31365;48.858;8.530;2023-09-12T01:55:11;6.80;;;4.72;;
45650;SDS011;31365;48.858;8.530;2023-09-12T01:57:43;9.52;;;4.50;;
45650;SDS011;31365;48.858;8.530;2023-09-12T02:00:14;8.13;;;4.65;;
45650;SDS011;31365;48.858;8.530;2023-09-12T02:02:45;5.28;;;4.72;;
45650;SDS011;31365;48.858;8.530;2023-09-12T02:05:15;7.22;;;4.53;;
45650;SDS011;31365;48.858;8.530;2023-09-12T02:07:46;7.85;;;4.60;;
45650;SDS011;31365;48.858;8.530;2023-09-12T02:10:15;7.03;;;4.70;;
45650;SDS011;31365;48.858;8.530;2023-09-12T02:12:45;5.07;;;4.57;;
45650;SDS011;31365;48.858;8.530;2023-09-12T02:15:13;8.32;;;4.30;;
45650;SDS011;31365;48.858;8.530;2023-09-12T02:17:42;11.68;;;4.93;;
45650;SDS011;31365;48.858;8.530;2023-09-12T02:20:10;7.97;;;5.53;;
45650;SDS011;31365;48.858;8.530;2023-09-12T02:22:39;5.50;;;4.97;;
45650;SDS011;31365;48.858;8.530;2023-09-12T02:25:07;7.75;;;4.80;;
45650;SDS011;31365;48.858;8.530;2023-09-12T02:27:37;10.38;;;4.40;;
45650;SDS011;31365;48.858;8.530;2023-09-12T02:30:08;7.03;;;5.53;;
45650;SDS011;31365;48.858;8.530;2023-09-12T02:32:38;13.30;;;4.60;;
45650;SDS011;31365;48.858;8.530;2023-09-12T02:35:09;8.32;;;5.30;;
45650;SDS011;31365;48.858;8.530;2023-09-12T02:37:38;9.23;;;5.05;;
45650;SDS011;31365;48.858;8.530;2023-09-12T02:40:07;7.85;;;4.93;;
45650;SDS011;31365;48.858;8.530;2023-09-12T02:42:38;8.50;;;5.10;;
45650;SDS011;31365;48.858;8.530;2023-09-12T02:45:08;6.72;;;5.20;;
45650;SDS011;31365;48.858;8.530;2023-09-12T02:47:38;8.07;;;4.93;;
45650;SDS011;31365;48.858;8.530;2023-09-12T02:50:06;10.02;;;5.53;;
45650;SDS011;31365;48.858;8.530;2023-09-12T02:52:36;9.15;;;4.60;;
45650;SDS011;31365;48.858;8.530;2023-09-12T02:55:04;6.30;;;4.80;;
45650;SDS011;31365;48.858;8.530;2023-09-12T02:57:34;7.38;;;5.57;;
45650;SDS011;31365;48.858;8.530;2023-09-12T03:00:03;11.45;;;5.78;;
45650;SDS011;31365;48.858;8.530;2023-09-12T03:02:36;8.75;;;5.15;;
45650;SDS011;31365;48.858;8.530;2023-09-12T03:05:05;5.78;;;4.82;;
45650;SDS011;31365;48.858;8.530;2023-09-12T03:07:35;5.68;;;5.18;;
45650;SDS011;31365;48.858;8.530;2023-09-12T03:10:04;6.38;;;5.20;;
45650;SDS011;31365;48.858;8.530;2023-09-12T03:12:35;7.60;;;5.15;;
45650;SDS011;31365;48.858;8.530;2023-09-12T03:15:04;8.50;;;5.55;;
45650;SDS011;31365;48.858;8.530;2023-09-12T03:17:38;8.45;;;5.70;;
45650;SDS011;31365;48.858;8.530;2023-09-12T03:20:07;7.60;;;5.00;;
45650;SDS011;31365;48.858;8.530;2023-09-12T03:22:37;6.38;;;4.65;;
45650;SDS011;31365;48.858;8.530;2023-09-12T03:25:06;7.05;;;5.20;;
45650;SDS011;31365;48.858;8.530;2023-09-12T03:27:35;5.90;;;4.80;;
45650;SDS011;31365;48.858;8.530;2023-09-12T03:30:05;9.07;;;5.35;;
45650;SDS011;31365;48.858;8.530;2023-09-12T03:32:35;7.15;;;5.47;;
45650;SDS011;31365;48.858;8.530;2023-09-12T03:35:06;6.45;;;5.57;;
45650;SDS011;31365;48.858;8.530;2023-09-12T03:37:38;9.00;;;4.90;;
45650;SDS011;31365;48.858;8.530;2023-09-12T03:40:10;8.27;;;5.15;;
45650;SDS011;31365;48.858;8.530;2023-09-12T03:42:39;7.05;;;5.45;;
45650;SDS011;31365;48.858;8.530;2023-09-12T03:45:09;7.28;;;5.25;;
45650;SDS011;31365;48.858;8.530;2023-09-12T03:47:39;5.13;;;4.57;;
45650;SDS011;31365;48.858;8.530;2023-09-12T03:50:09;9.55;;;5.68;;
45650;SDS011;31365;48.858;8.530;2023-09-12T03:52:37;6.45;;;5.38;;
45650;SDS011;31365;48.858;8.530;2023-09-12T03:55:09;5.72;;;5.22;;
45650;SDS011;31365;48.858;8.530;2023-09-12T03:57:37;10.23;;;5.03;;
45650;SDS011;31365;48.858;8.530;2023-09-12T04:00:26;6.72;;;5.10;;
45650;SDS011;31365;48.858;8.530;2023-09-12T04:02:55;5.30;;;4.80;;
45650;SDS011;31365;48.858;8.530;2023-09-12T04:05:26;9.50;;;5.45;;
45650;SDS011;31365;48.858;8.530;2023-09-12T04:08:16;7.63;;;4.85;;
45650;SDS011;31365;48.858;8.530;2023-09-12T04:10:44;6.70;;;5.22;;
45650;SDS011;31365;48.858;8.530;2023-09-12T04:13:12;7.22;;;4.72;;
45650;SDS011;31365;48.858;8.530;2023-09-12T04:15:41;7.05;;;5.70;;
45650;SDS011;31365;48.858;8.530;2023-09-12T04:18:10;7.75;;;5.35;;
45650;SDS011;31365;48.858;8.530;2023-09-12T04:20:40;10.18;;;5.55;;
45650;SDS011;31365;48.858;8.530;2023-09-12T04:23:10;9.85;;;5.20;;
45650;SDS011;31365;48.858;8.530;2023-09-12T04:25:41;6.07;;;5.18;;
45650;SDS011;31365;48.858;8.530;2023-09-12T04:28:11;8.07;;;5.28;;
45650;SDS011;31365;48.858;8.530;2023-09-12T04:30:39;9.68;;;5.85;;
45650;SDS011;31365;48.858;8.530;2023-09-12T04:33:12;7.38;;;5.00;;
45650;SDS011;31365;48.858;8.530;2023-09-12T04:35:42;7.70;;;5.85;;
45650;SDS011;31365;48.858;8.530;2023-09-12T04:38:10;8.93;;;5.57;;
45650;SDS011;31365;48.858;8.530;2023-09-12T04:40:38;7.75;;;5.40;;
45650;SDS011;31365;48.858;8.530;2023-09-12T04:43:07;8.02;;;5.70;;
45650;SDS011;31365;48.858;8.530;2023-09-12T04:45:35;6.88;;;5.95;;
45650;SDS011;31365;48.858;8.530;2023-09-12T04:48:04;6.50;;;5.22;;
45650;SDS011;31365;48.858;8.530;2023-09-12T04:50:32;6.25;;;5.20;;
45650;SDS011;31365;48.858;8.530;2023-09-12T04:53:02;9.52;;;6.10;;
45650;SDS011;31365;48.858;8.530;2023-09-12T04:55:31;6.13;;;5.45;;
45650;SDS011;31365;48.858;8.530;2023-09-12T04:57:59;7.18;;;5.80;;
45650;SDS011;31365;48.858;8.530;2023-09-12T05:00:27;5.68;;;5.10;;
45650;SDS011;31365;48.858;8.530;2023-09-12T05:02:56;9.98;;;5.55;;
45650;SDS011;31365;48.858;8.530;2023-09-12T05:05:24;7.13;;;5.43;;
45650;SDS011;31365;48.858;8.530;2023-09-12T05:07:53;5.63;;;5.03;;
45650;SDS011;31365;48.858;8.530;2023-09-12T05:10:23;6.65;;;5.90;;
45650;SDS011;31365;48.858;8.530;2023-09-12T05:12:51;7.82;;;5.60;;
45650;SDS011;31365;48.858;8.530;2023-09-12T05:15:20;7.95;;;5.35;;
45650;SDS011;31365;48.858;8.530;2023-09-12T05:17:49;8.52;;;6.07;;
45650;SDS011;31365;48.858;8.530;2023-09-12T05:20:17;9.07;;;5.68;;
45650;SDS011;31365;48.858;8.530;2023-09-12T05:22:46;7.00;;;6.15;;
45650;SDS011;31365;48.858;8.530;2023-09-12T05:25:15;8.20;;;6.45;;
45650;SDS011;31365;48.858;8.530;2023-09-12T05:27:44;7.60;;;5.72;;
45650;SDS011;31365;48.858;8.530;2023-09-12T05:30:12;7.22;;;5.70;;
45650;SDS011;31365;48.858;8.530;2023-09-12T05:32:41;8.82;;;5.68;;
45650;SDS011;31365;48.858;8.530;2023-09-12T05:35:10;9.15;;;6.25;;
45650;SDS011;31365;48.858;8.530;2023-09-12T05:37:48;7.82;;;6.00;;
45650;SDS011;31365;48.858;8.530;2023-09-12T05:40:18;8.88;;;6.22;;
45650;SDS011;31365;48.858;8.530;2023-09-12T05:42:47;7.25;;;6.10;;
45650;SDS011;31365;48.858;8.530;2023-09-12T05:45:16;8.20;;;6.53;;
45650;SDS011;31365;48.858;8.530;2023-09-12T05:47:44;7.75;;;5.68;;
45650;SDS011;31365;48.858;8.530;2023-09-12T05:50:13;6.70;;;5.90;;
45650;SDS011;31365;48.858;8.530;2023-09-12T05:52:41;6.30;;;5.63;;
45650;SDS011;31365;48.858;8.530;2023-09-12T05:55:11;7.82;;;5.57;;
45650;SDS011;31365;48.858;8.530;2023-09-12T05:57:40;7.18;;;5.95;;
45650;SDS011;31365;48.858;8.530;2023-09-12T06:00:10;8.82;;;5.20;;
45650;SDS011;31365;48.858;8.530;2023-09-12T06:02:42;8.50;;;5.65;;
45650;SDS011;31365;48.858;8.530;2023-09-12T06:05:12;8.65;;;5.80;;
45650;SDS011;31365;48.858;8.530;2023-09-12T06:07:40;7.90;;;5.88;;
45650;SDS011;31365;48.858;8.530;2023-09-12T06:10:09;7.55;;;5.38;;
45650;SDS011;31365;48.858;8.530;2023-09-12T06:12:37;8.02;;;5.82;;
45650;SDS011;31365;48.858;8.530;2023-09-12T06:15:06;5.82;;;5.13;;
45650;SDS011;31365;48.858;8.530;2023-09-12T06:17:37;7.43;;;6.72;;
45650;SDS011;31365;48.858;8.530;2023-09-12T06:20:06;7.57;;;5.68;;
45650;SDS011;31365;48.858;8.530;2023-09-12T06:22:36;7.82;;;5.28;;
45650;SDS011;31365;48.858;8.530;2023-09-12T06:25:05;6.85;;;5.93;;
45650;SDS011;31365;48.858;8.530;2023-09-12T06:27:35;7.10;;;5.82;;
45650;SDS011;31365;48.858;8.530;2023-09-12T06:30:04;8.90;;;5.68;;
45650;SDS011;31365;48.858;8.530;2023-09-12T06:32:33;6.43;;;5.72;;
45650;SDS011;31365;48.858;8.530;2023-09-12T06:35:04;5.90;;;5.32;;
45650;SDS011;31365;48.858;8.530;2023-09-12T06:37:34;11.32;;;6.28;;
45650;SDS011;31365;48.858;8.530;2023-09-12T06:40:02;6.78;;;5.85;;
45650;SDS011;31365;48.858;8.530;2023-09-12T06:42:31;7.90;;;5.72;;
45650;SDS011;31365;48.858;8.530;2023-09-12T06:44:59;7.20;;;5.70;;
45650;SDS011;31365;48.858;8.530;2023-09-12T06:47:28;10.38;;;5.82;;
45650;SDS011;31365;48.858;8.530;2023-09-12T06:49:57;12.93;;;5.70;;
45650;SDS011;31365;48.858;8.530;2023-09-12T06:52:26;5.97;;;5.32;;
45650;SDS011;31365;48.858;8.530;2023-09-12T06:54:54;13.52;;;6.50;;
45650;SDS011;31365;48.858;8.530;2023-09-12T06:57:22;9.38;;;5.70;;
45650;SDS011;31365;48.858;8.530;2023-09-12T06:59:51;11.82;;;5.72;;
45650;SDS011;31365;48.858;8.530;2023-09-12T07:02:19;7.47;;;4.75;;
45650;SDS011;31365;48.858;8.530;2023-09-12T07:04:48;6.47;;;5.68;;
45650;SDS011;31365;48.858;8.530;2023-09-12T07:07:16;8.77;;;5.10;;
45650;SDS011;31365;48.858;8.530;2023-09-12T07:09:47;6.43;;;4.95;;
45650;SDS011;31365;48.858;8.530;2023-09-12T07:12:15;10.57;;;5.70;;
45650;SDS011;31365;48.858;8.530;2023-09-12T07:14:44;7.20;;;5.30;;
45650;SDS011;31365;48.858;8.530;2023-09-12T07:17:12;6.45;;;5.28;;
45650;SDS011;31365;48.858;8.530;2023-09-12T07:19:42;8.27;;;5.35;;
45650;SDS011;31365;48.858;8.530;2023-09-12T07:22:11;6.13;;;5.25;;
45650;SDS011;31365;48.858;8.530;2023-09-12T07:24:39;7.40;;;5.22;;
45650;SDS011;31365;48.858;8.530;2023-09-12T07:27:09;8.35;;;5.90;;
45650;SDS011;31365;48.858;8.530;2023-09-12T07:29:38;7.97;;;5.55;;
45650;SDS011;31365;48.858;8.530;2023-09-12T07:32:27;7.03;;;5.18;;
45650;SDS011;31365;48.858;8.530;2023-09-12T07:34:55;9.32;;;6.32;;
45650;SDS011;31365;48.858;8.530;2023-09-12T07:37:24;8.38;;;5.70;;
45650;SDS011;31365;48.858;8.530;2023-09-12T07:39:53;8.30;;;5.60;;
45650;SDS011;31365;48.858;8.530;2023-09-12T07:42:23;6.60;;;5.68;;
45650;SDS011;31365;48.858;8.530;2023-09-12T07:44:52;8.13;;;5.15;;
45650;SDS011;31365;48.858;8.530;2023-09-12T07:47:21;8.88;;;6.03;;
45650;SDS011;31365;48.858;8.530;2023-09-12T07:50:11;7.72;;;5.30;;
45650;SDS011;31365;48.858;8.530;2023-09-12T07:52:39;10.25;;;5.97;;
45650;SDS011;31365;48.858;8.530;2023-09-12T07:55:08;6.13;;;5.53;;
45650;SDS011;31365;48.858;8.530;2023-09-12T07:57:38;7.18;;;5.55;;
45650;SDS011;31365;48.858;8.530;2023-09-12T08:00:07;8.18;;;6.07;;
45650;SDS011;31365;48.858;8.530;2023-09-12T08:02:37;6.20;;;5.40;;
45650;SDS011;31365;48.858;8.530;2023-09-12T08:05:07;8.23;;;5.95;;
45650;SDS011;31365;48.858;8.530;2023-09-12T08:07:36;8.95;;;5.68;;
45650;SDS011;31365;48.858;8.530;2023-09-12T08:10:04;8.25;;;5.90;;
45650;SDS011;31365;48.858;8.530;2023-09-12T08:12:34;7.30;;;5.47;;
45650;SDS011;31365;48.858;8.530;2023-09-12T08:15:07;6.00;;;5.25;;
45650;SDS011;31365;48.858;8.530;2023-09-12T08:17:37;7.22;;;5.85;;
45650;SDS011;31365;48.858;8.530;2023-09-12T08:20:07;9.77;;;5.40;;
45650;SDS011;31365;48.858;8.530;2023-09-12T08:22:37;7.38;;;5.93;;
45650;SDS011;31365;48.858;8.530;2023-09-12T08:25:06;7.28;;;5.65;;
45650;SDS011;31365;48.858;8.530;2023-09-12T08:27:35;5.45;;;4.95;;
45650;SDS011;31365;48.858;8.530;2023-09-12T08:30:03;5.93;;;5.22;;
45650;SDS011;31365;48.858;8.530;2023-09-12T08:32:36;8.88;;;5.28;;
45650;SDS011;31365;48.858;8.530;2023-09-12T08:35:07;7.65;;;5.32;;
45650;SDS011;31365;48.858;8.530;2023-09-12T08:37:35;8.30;;;6.18;;
45650;SDS011;31365;48.858;8.530;2023-09-12T08:40:06;6.70;;;5.00;;
45650;SDS011;31365;48.858;8.530;2023-09-12T08:42:38;20.98;;;10.15;;
45650;SDS011;31365;48.858;8.530;2023-09-12T08:45:11;13.18;;;5.95;;
45650;SDS011;31365;48.858;8.530;2023-09-12T08:47:42;5.82;;;5.28;;
45650;SDS011;31365;48.858;8.530;2023-09-12T08:50:14;5.88;;;5.10;;
45650;SDS011;31365;48.858;8.530;2023-09-12T08:52:44;5.35;;;4.85;;
45650;SDS011;31365;48.858;8.530;2023-09-12T08:55:32;6.82;;;5.28;;
45650;SDS011;31365;48.858;8.530;2023-09-12T08:58:03;8.70;;;5.15;;
45650;SDS011;31365;48.858;8.530;2023-09-12T09:00:34;9.63;;;5.57;;
45650;SDS011;31365;48.858;8.530;2023-09-12T09:03:25;10.15;;;5.45;;
45650;SDS011;31365;48.858;8.530;2023-09-12T09:05:54;5.93;;;5.35;;
45650;SDS011;31365;48.858;8.530;2023-09-12T09:08:25;6.75;;;5.32;;
45650;SDS011;31365;48.858;8.530;2023-09-12T09:10:56;5.70;;;5.20;;
45650;SDS011;31365;48.858;8.530;2023-09-12T09:13:24;8.27;;;5.40;;
45650;SDS011;31365;48.858;8.530;2023-09-12T09:16:10;11.68;;;5.43;;
45650;SDS011;31365;48.858;8.530;2023-09-12T09:18:50;7.57;;;5.45;;
45650;SDS011;31365;48.858;8.530;2023-09-12T09:21:20;7.80;;;5.40;;
45650;SDS011;31365;48.858;8.530;2023-09-12T09:23:51;6.35;;;5.25;;
45650;SDS011;31365;48.858;8.530;2023-09-12T09:26:20;6.18;;;5.57;;
45650;SDS011;31365;48.858;8.530;2023-09-12T09:29:06;8.48;;;6.13;;
45650;SDS011;31365;48.858;8.530;2023-09-12T09:31:40;6.18;;;5.18;;
45650;SDS011;31365;48.858;8.530;2023-09-12T09:34:13;6.03;;;5.30;;
45650;SDS011;31365;48.858;8.530;2023-09-12T09:36:43;6.47;;;4.88;;
45650;SDS011;31365;48.858;8.530;2023-09-12T09:39:15;5.50;;;4.78;;
45650;SDS011;31365;48.858;8.530;2023-09-12T09:41:47;6.88;;;5.28;;
45650;SDS011;31365;48.858;8.530;2023-09-12T09:44:15;9.95;;;4.95;;
45650;SDS011;31365;48.858;8.530;2023-09-12T09:46:46;5.57;;;5.05;;
45650;SDS011;31365;48.858;8.530;2023-09-12T09:49:19;10.20;;;5.53;;
45650;SDS011;31365;48.858;8.530;2023-09-12T09:51:48;5.93;;;5.32;;
45650;SDS011;31365;48.858;8.530;2023-09-12T09:54:17;9.35;;;5.65;;
45650;SDS011;31365;48.858;8.530;2023-09-12T09:56:45;5.55;;;5.03;;
45650;SDS011;31365;48.858;8.530;2023-09-12T09:59:15;5.60;;;4.95;;
45650;SDS011;31365;48.858;8.530;2023-09-12T10:01:45;9.55;;;5.47;;
45650;SDS011;31365;48.858;8.530;2023-09-12T10:04:17;7.05;;;5.00;;
45650;SDS011;31365;48.858;8.530;2023-09-12T10:06:46;6.07;;;5.05;;
45650;SDS011;31365;48.858;8.530;2023-09-12T10:09:14;6.45;;;4.97;;
45650;SDS011;31365;48.858;8.530;2023-09-12T10:11:46;8.00;;;4.65;;
45650;SDS011;31365;48.858;8.530;2023-09-12T10:14:18;6.38;;;5.00;;
45650;SDS011;31365;48.858;8.530;2023-09-12T10:16:49;6.05;;;5.07;;
45650;SDS011;31365;48.858;8.530;2023-09-12T10:19:20;9.70;;;5.15;;
45650;SDS011;31365;48.858;8.530;2023-09-12T10:21:54;6.70;;;5.20;;
45650;SDS011;31365;48.858;8.530;2023-09-12T10:24:34;7.90;;;4.95;;
45650;SDS011;31365;48.858;8.530;2023-09-12T10:27:03;5.75;;;4.57;;
45650;SDS011;31365;48.858;8.530;2023-09-12T10:29:33;4.75;;;4.22;;
45650;SDS011;31365;48.858;8.530;2023-09-12T10:32:04;6.70;;;4.90;;
45650;SDS011;31365;48.858;8.530;2023-09-12T10:34:33;7.68;;;4.70;;
45650;SDS011;31365;48.858;8.530;2023-09-12T10:37:05;4.75;;;4.35;;
45650;SDS011;31365;48.858;8.530;2023-09-12T10:39:34;6.82;;;5.03;;
45650;SDS011;31365;48.858;8.530;2023-09-12T10:42:03;5.00;;;4.55;;
45650;SDS011;31365;48.858;8.530;2023-09-12T10:44:35;9.48;;;5.10;;
45650;SDS011;31365;48.858;8.530;2023-09-12T10:47:05;5.00;;;4.32;;
45650;SDS011;31365;48.858;8.530;2023-09-12T10:49:35;6.63;;;5.10;;
45650;SDS011;31365;48.858;8.530;2023-09-12T10:52:05;5.80;;;5.25;;
45650;SDS011;31365;48.858;8.530;2023-09-12T10:54:37;6.80;;;4.78;;
45650;SDS011;31365;48.858;8.530;2023-09-12T10:57:07;6.38;;;4.88;;
45650;SDS011;31365;48.858;8.530;2023-09-12T11:02:40;10.98;;;5.68;;
45650;SDS011;31365;48.858;8.530;2023-09-12T11:08:19;7.93;;;5.10;;
45650;SDS011;31365;48.858;8.530;2023-09-12T11:13:47;87.20;;;15.05;;
45650;SDS011;31365;48.858;8.530;2023-09-12T11:16:30;8.40;;;5.75;;
45650;SDS011;31365;48.858;8.530;2023-09-12T11:19:13;10.63;;;5.55;;
45650;SDS011;31365;48.858;8.530;2023-09-12T11:21:43;7.32;;;4.00;;
45650;SDS011;31365;48.858;8.530;2023-09-12T11:24:13;6.25;;;4.80;;
45650;SDS011;31365;48.858;8.530;2023-09-12T11:26:55;4.63;;;4.03;;
45650;SDS011;31365;48.858;8.530;2023-09-12T11:29:28;8.63;;;4.63;;
45650;SDS011;31365;48.858;8.530;2023-09-12T11:32:02;4.10;;;3.80;;
45650;SDS011;31365;48.858;8.530;2023-09-12T11:34:37;5.03;;;3.67;;
45650;SDS011;31365;48.858;8.530;2023-09-12T11:37:08;4.50;;;4.10;;
45650;SDS011;31365;48.858;8.530;2023-09-12T11:39:39;4.18;;;3.78;;
45650;SDS011;31365;48.858;8.530;2023-09-12T11:42:07;4.85;;;3.75;;
45650;SDS011;31365;48.858;8.530;2023-09-12T11:44:40;3.80;;;3.50;;
45650;SDS011;31365;48.858;8.530;2023-09-12T11:47:11;5.88;;;3.90;;
45650;SDS011;31365;48.858;8.530;2023-09-12T11:49:41;3.83;;;3.53;;
45650;SDS011;31365;48.858;8.530;2023-09-12T11:52:10;3.80;;;3.45;;
45650;SDS011;31365;48.858;8.530;2023-09-12T11:54:41;4.28;;;3.92;;
45650;SDS011;31365;48.858;8.530;2023-09-12T11:57:12;6.90;;;3.67;;
45650;SDS011;31365;48.858;8.530;2023-09-12T11:59:43;4.10;;;3.75;;
45650;SDS011;31365;48.858;8.530;2023-09-12T12:02:15;3.33;;;3.13;;
45650;SDS011;31365;48.858;8.530;2023-09-12T12:04:45;5.88;;;4.00;;
45650;SDS011;31365;48.858;8.530;2023-09-12T12:07:14;4.15;;;3.75;;
45650;SDS011;31365;48.858;8.530;2023-09-12T12:09:42;4.10;;;3.70;;
45650;SDS011;31365;48.858;8.530;2023-09-12T12:12:11;5.53;;;3.67;;
45650;SDS011;31365;48.858;8.530;2023-09-12T12:14:41;6.00;;;3.40;;
45650;SDS011;31365;48.858;8.530;2023-09-12T12:17:11;5.78;;;4.13;;
45650;SDS011;31365;48.858;8.530;2023-09-12T12:19:44;5.30;;;4.07;;
45650;SDS011;31365;48.858;8.530;2023-09-12T12:22:14;6.55;;;4.20;;
45650;SDS011;31365;48.858;8.530;2023-09-12T12:24:44;5.25;;;4.20;;
45650;SDS011;31365;48.858;8.530;2023-09-12T12:27:14;5.05;;;3.97;;
45650;SDS011;31365;48.858;8.530;2023-09-12T12:29:43;4.60;;;4.20;;
45650;SDS011;31365;48.858;8.530;2023-09-12T12:32:14;6.13;;;3.90;;
45650;SDS011;31365;48.858;8.530;2023-09-12T12:34:48;4.43;;;4.10;;
45650;SDS011;31365;48.858;8.530;2023-09-12T12:40:05;5.47;;;4.28;;
45650;SDS011;31365;48.858;8.530;2023-09-12T12:42:40;4.15;;;3.50;;
45650;SDS011;31365;48.858;8.530;2023-09-12T12:45:21;4.85;;;3.53;;
45650;SDS011;31365;48.858;8.530;2023-09-12T12:47:51;4.03;;;3.63;;
45650;SDS011;31365;48.858;8.530;2023-09-12T12:50:25;5.70;;;3.80;;
45650;SDS011;31365;48.858;8.530;2023-09-12T12:52:54;3.57;;;3.27;;
45650;SDS011;31365;48.858;8.530;2023-09-12T12:55:22;3.63;;;3.33;;
45650;SDS011;31365;48.858;8.530;2023-09-12T12:57:53;5.78;;;3.47;;
45650;SDS011;31365;48.858;8.530;2023-09-12T13:00:21;23.83;;;5.70;;
45650;SDS011;31365;48.858;8.530;2023-09-12T13:02:50;6.35;;;3.65;;
45650;SDS011;31365;48.858;8.530;2023-09-12T13:05:23;4.97;;;3.20;;
45650;SDS011;31365;48.858;8.530;2023-09-12T13:07:55;3.43;;;3.13;;
45650;SDS011;31365;48.858;8.530;2023-09-12T13:10:24;7.25;;;3.42;;
45650;SDS011;31365;48.858;8.530;2023-09-12T13:12:52;5.27;;;3.43;;
45650;SDS011;31365;48.858;8.530;2023-09-12T13:15:21;3.83;;;3.03;;
45650;SDS011;31365;48.858;8.530;2023-09-12T13:17:50;3.40;;;3.10;;
45650;SDS011;31365;48.858;8.530;2023-09-12T13:20:18;4.43;;;3.40;;
45650;SDS011;31365;48.858;8.530;2023-09-12T13:22:48;3.88;;;3.47;;
45650;SDS011;31365;48.858;8.530;2023-09-12T13:25:16;3.75;;;3.28;;
45650;SDS011;31365;48.858;8.530;2023-09-12T13:27:46;4.25;;;3.55;;
45650;SDS011;31365;48.858;8.530;2023-09-12T13:30:14;4.45;;;3.15;;
45650;SDS011;31365;48.858;8.530;2023-09-12T13:32:43;4.63;;;3.50;;
45650;SDS011;31365;48.858;8.530;2023-09-12T13:35:12;4.40;;;3.47;;
45650;SDS011;31365;48.858;8.530;2023-09-12T13:37:42;4.97;;;3.50;;
45650;SDS011;31365;48.858;8.530;2023-09-12T13:40:12;3.60;;;3.30;;
45650;SDS011;31365;48.858;8.530;2023-09-12T13:42:40;4.20;;;3.10;;
45650;SDS011;31365;48.858;8.530;2023-09-12T13:45:11;3.53;;;3.22;;
45650;SDS011;31365;48.858;8.530;2023-09-12T13:47:39;3.33;;;3.00;;
45650;SDS011;31365;48.858;8.530;2023-09-12T13:50:09;3.28;;;3.03;;
45650;SDS011;31365;48.858;8.530;2023-09-12T13:52:37;3.65;;;3.35;;
45650;SDS011;31365;48.858;8.530;2023-09-12T13:55:05;3.22;;;2.92;;
45650;SDS011;31365;48.858;8.530;2023-09-12T13:58:01;4.60;;;3.20;;
45650;SDS011;31365;48.858;8.530;2023-09-12T14:00:31;3.30;;;3.00;;
45650;SDS011;31365;48.858;8.530;2023-09-12T14:03:04;3.53;;;3.22;;
45650;SDS011;31365;48.858;8.530;2023-09-12T14:05:33;4.43;;;3.40;;
45650;SDS011;31365;48.858;8.530;2023-09-12T14:08:02;3.75;;;3.35;;
45650;SDS011;31365;48.858;8.530;2023-09-12T14:10:31;5.15;;;3.05;;
45650;SDS011;31365;48.858;8.530;2023-09-12T14:13:05;3.13;;;2.73;;
45650;SDS011;31365;48.858;8.530;2023-09-12T14:15:37;3.97;;;3.28;;
45650;SDS011;31365;48.858;8.530;2023-09-12T14:18:05;4.20;;;3.20;;
45650;SDS011;31365;48.858;8.530;2023-09-12T14:20:34;3.33;;;3.03;;
45650;SDS011;31365;48.858;8.530;2023-09-12T14:23:03;3.78;;;3.00;;
45650;SDS011;31365;48.858;8.530;2023-09-12T14:25:31;4.50;;;3.00;;
45650;SDS011;31365;48.858;8.530;2023-09-12T14:28:01;3.60;;;3.17;;
45650;SDS011;31365;48.858;8.530;2023-09-12T14:30:32;4.80;;;3.47;;
45650;SDS011;31365;48.858;8.530;2023-09-12T14:33:02;4.47;;;3.57;;
45650;SDS011;31365;48.858;8.530;2023-09-12T14:35:31;4.43;;;3.15;;
45650;SDS011;31365;48.858;8.530;2023-09-12T14:38:00;4.60;;;3.60;;
45650;SDS011;31365;48.858;8.530;2023-09-12T14:40:28;6.90;;;3.50;;
45650;SDS011;31365;48.858;8.530;2023-09-12T14:42:56;3.72;;;3.40;;
45650;SDS011;31365;48.858;8.530;2023-09-12T14:45:24;3.90;;;3.30;;
45650;SDS011;31365;48.858;8.530;2023-09-12T14:47:53;7.35;;;3.70;;
45650;SDS011;31365;48.858;8.530;2023-09-12T14:50:22;5.10;;;3.90;;
45650;SDS011;31365;48.858;8.530;2023-09-12T14:53:06;3.85;;;3.55;;
45650;SDS011;31365;48.858;8.530;2023-09-12T14:55:34;4.38;;;3.47;;
45650;SDS011;31365;48.858;8.530;2023-09-12T14:58:02;8.02;;;3.78;;
45650;SDS011;31365;48.858;8.530;2023-09-12T15:00:31;3.95;;;3.65;;
45650;SDS011;31365;48.858;8.530;2023-09-12T15:03:01;4.18;;;3.67;;
45650;SDS011;31365;48.858;8.530;2023-09-12T15:05:31;4.32;;;3.92;;
45650;SDS011;31365;48.858;8.530;2023-09-12T15:07:59;4.88;;;3.97;;
45650;SDS011;31365;48.858;8.530;2023-09-12T15:10:28;4.85;;;4.28;;
45650;SDS011;31365;48.858;8.530;2023-09-12T15:12:57;4.75;;;3.70;;
45650;SDS011;31365;48.858;8.530;2023-09-12T15:15:25;4.28;;;3.88;;
45650;SDS011;31365;48.858;8.530;2023-09-12T15:17:53;4.70;;;4.30;;